sensor_id;sensor_type;location;lat;lon;timestamp;P1;durP1;ratioP1;P2;durP2;ratioP2
44973;SDS011;60981;50.720;11.342;2024-02-15T00:00:35;3.50;;;1.10;;
44973;SDS011;60981;50.720;11.342;2024-02-15T00:01:39;2.28;;;0.90;;
44973;SDS011;60981;50.720;11.342;2024-02-15T00:02:42;3.50;;;1.30;;
44973;SDS011;60981;50.720;11.342;2024-02-15T00:03:46;2.10;;;0.70;;
44973;SDS011;60981;50.720;11.342;2024-02-15T00:04:47;2.22;;;0.65;;
44973;SDS011;60981;50.720;11.342;2024-02-15T00:05:50;1.48;;;0.47;;
44973;SDS011;60981;50.720;11.342;2024-02-15T00:06:52;4.05;;;1.15;;
44973;SDS011;60981;50.720;11.342;2024-02-15T00:07:54;2.85;;;0.98;;
44973;SDS011;60981;50.720;11.342;2024-02-15T00:08:59;2.13;;;0.73;;
44973;SDS011;60981;50.720;11.342;2024-02-15T00:10:02;2.15;;;0.50;;
44973;SDS011;60981;50.720;11.342;2024-02-15T00:11:06;0.60;;;0.20;;
44973;SDS011;60981;50.720;11.342;2024-02-15T00:12:11;0.93;;;0.30;;
44973;SDS011;60981;50.720;11.342;2024-02-15T00:13:14;1.13;;;0.40;;
44973;SDS011;60981;50.720;11.342;2024-02-15T00:14:16;1.17;;;0.20;;
44973;SDS011;60981;50.720;11.342;2024-02-15T00:15:20;1.92;;;0.32;;
44973;SDS011;60981;50.720;11.342;2024-02-15T00:16:23;1.30;;;0.38;;
44973;SDS011;60981;50.720;11.342;2024-02-15T00:17:27;1.42;;;0.57;;
44973;SDS011;60981;50.720;11.342;2024-02-15T00:18:32;2.03;;;0.63;;
44973;SDS011;60981;50.720;11.342;2024-02-15T00:19:35;1.33;;;0.55;;
44973;SDS011;60981;50.720;11.342;2024-02-15T00:20:39;1.25;;;0.40;;
44973;SDS011;60981;50.720;11.342;2024-02-15T00:21:43;1.10;;;0.43;;
44973;SDS011;60981;50.720;11.342;2024-02-15T00:22:45;0.85;;;0.30;;
44973;SDS011;60981;50.720;11.342;2024-02-15T00:23:46;1.02;;;0.32;;
44973;SDS011;60981;50.720;11.342;2024-02-15T00:24:48;1.25;;;0.43;;
44973;SDS011;60981;50.720;11.342;2024-02-15T00:25:55;3.20;;;0.80;;
44973;SDS011;60981;50.720;11.342;2024-02-15T00:26:56;1.10;;;0.30;;
44973;SDS011;60981;50.720;11.342;2024-02-15T00:27:59;0.63;;;0.20;;
44973;SDS011;60981;50.720;11.342;2024-02-15T00:29:05;0.70;;;0.30;;
44973;SDS011;60981;50.720;11.342;2024-02-15T00:30:08;2.80;;;0.33;;
44973;SDS011;60981;50.720;11.342;2024-02-15T00:31:10;0.55;;;0.10;;
44973;SDS011;60981;50.720;11.342;2024-02-15T00:32:13;2.10;;;0.60;;
44973;SDS011;60981;50.720;11.342;2024-02-15T00:33:16;1.02;;;0.35;;
44973;SDS011;60981;50.720;11.342;2024-02-15T00:34:18;0.43;;;0.10;;
44973;SDS011;60981;50.720;11.342;2024-02-15T00:35:20;1.10;;;0.30;;
44973;SDS011;60981;50.720;11.342;2024-02-15T00:36:22;1.50;;;0.20;;
44973;SDS011;60981;50.720;11.342;2024-02-15T00:37:24;0.85;;;0.20;;
44973;SDS011;60981;50.720;11.342;2024-02-15T00:38:26;0.43;;;0.10;;
44973;SDS011;60981;50.720;11.342;2024-02-15T00:39:30;0.70;;;0.30;;
44973;SDS011;60981;50.720;11.342;2024-02-15T00:40:33;1.33;;;0.40;;
44973;SDS011;60981;50.720;11.342;2024-02-15T00:41:34;0.98;;;0.32;;
44973;SDS011;60981;50.720;11.342;2024-02-15T00:42:38;1.27;;;0.35;;
44973;SDS011;60981;50.720;11.342;2024-02-15T00:43:42;2.03;;;0.57;;
44973;SDS011;60981;50.720;11.342;2024-02-15T00:44:43;1.95;;;0.82;;
44973;SDS011;60981;50.720;11.342;2024-02-15T00:45:46;1.80;;;0.63;;
44973;SDS011;60981;50.720;11.342;2024-02-15T00:46:49;2.15;;;0.60;;
44973;SDS011;60981;50.720;11.342;2024-02-15T00:47:55;1.40;;;0.50;;
44973;SDS011;60981;50.720;11.342;2024-02-15T00:48:58;1.63;;;0.57;;
44973;SDS011;60981;50.720;11.342;2024-02-15T00:50:02;1.50;;;0.60;;
44973;SDS011;60981;50.720;11.342;2024-02-15T00:51:05;1.58;;;0.65;;
44973;SDS011;60981;50.720;11.342;2024-02-15T00:52:08;1.60;;;0.40;;
44973;SDS011;60981;50.720;11.342;2024-02-15T00:53:11;1.02;;;0.35;;
44973;SDS011;60981;50.720;11.342;2024-02-15T00:54:13;6.53;;;0.65;;
44973;SDS011;60981;50.720;11.342;2024-02-15T00:55:15;1.15;;;0.40;;
44973;SDS011;60981;50.720;11.342;2024-02-15T00:56:19;1.08;;;0.30;;
44973;SDS011;60981;50.720;11.342;2024-02-15T00:57:21;1.15;;;0.30;;
44973;SDS011;60981;50.720;11.342;2024-02-15T00:58:23;2.00;;;0.35;;
44973;SDS011;60981;50.720;11.342;2024-02-15T00:59:29;1.60;;;0.47;;
44973;SDS011;60981;50.720;11.342;2024-02-15T01:00:32;1.80;;;0.63;;
44973;SDS011;60981;50.720;11.342;2024-02-15T01:01:36;1.13;;;0.30;;
44973;SDS011;60981;50.720;11.342;2024-02-15T01:02:40;1.23;;;0.32;;
44973;SDS011;60981;50.720;11.342;2024-02-15T01:03:43;1.95;;;0.70;;
44973;SDS011;60981;50.720;11.342;2024-02-15T01:04:45;1.85;;;0.38;;
44973;SDS011;60981;50.720;11.342;2024-02-15T01:05:47;1.25;;;0.60;;
44973;SDS011;60981;50.720;11.342;2024-02-15T01:06:49;1.33;;;0.50;;
44973;SDS011;60981;50.720;11.342;2024-02-15T01:07:52;2.60;;;0.65;;
44973;SDS011;60981;50.720;11.342;2024-02-15T01:08:55;1.45;;;0.40;;
44973;SDS011;60981;50.720;11.342;2024-02-15T01:10:00;2.50;;;0.70;;
44973;SDS011;60981;50.720;11.342;2024-02-15T01:11:03;1.08;;;0.45;;
44973;SDS011;60981;50.720;11.342;2024-02-15T01:12:05;1.38;;;0.50;;
44973;SDS011;60981;50.720;11.342;2024-02-15T01:13:08;1.67;;;0.40;;
44973;SDS011;60981;50.720;11.342;2024-02-15T01:14:12;1.55;;;0.75;;
44973;SDS011;60981;50.720;11.342;2024-02-15T01:15:14;1.02;;;0.38;;
44973;SDS011;60981;50.720;11.342;2024-02-15T01:16:19;0.90;;;0.30;;
44973;SDS011;60981;50.720;11.342;2024-02-15T01:17:23;2.20;;;0.75;;
44973;SDS011;60981;50.720;11.342;2024-02-15T01:18:24;4.90;;;1.05;;
44973;SDS011;60981;50.720;11.342;2024-02-15T01:19:27;3.40;;;1.45;;
44973;SDS011;60981;50.720;11.342;2024-02-15T01:20:29;2.28;;;1.30;;
44973;SDS011;60981;50.720;11.342;2024-02-15T01:21:32;4.28;;;1.30;;
44973;SDS011;60981;50.720;11.342;2024-02-15T01:22:37;3.53;;;1.20;;
44973;SDS011;60981;50.720;11.342;2024-02-15T01:23:40;4.20;;;1.30;;
44973;SDS011;60981;50.720;11.342;2024-02-15T01:24:43;2.85;;;1.23;;
44973;SDS011;60981;50.720;11.342;2024-02-15T01:25:46;2.60;;;0.90;;
44973;SDS011;60981;50.720;11.342;2024-02-15T01:26:48;1.95;;;0.95;;
44973;SDS011;60981;50.720;11.342;2024-02-15T01:27:53;6.20;;;1.70;;
44973;SDS011;60981;50.720;11.342;2024-02-15T01:28:56;2.33;;;1.38;;
44973;SDS011;60981;50.720;11.342;2024-02-15T01:29:59;5.05;;;1.38;;
44973;SDS011;60981;50.720;11.342;2024-02-15T01:31:03;2.97;;;1.60;;
44973;SDS011;60981;50.720;11.342;2024-02-15T01:32:05;3.25;;;1.00;;
44973;SDS011;60981;50.720;11.342;2024-02-15T01:33:09;5.87;;;1.33;;
44973;SDS011;60981;50.720;11.342;2024-02-15T01:34:12;2.77;;;1.13;;
44973;SDS011;60981;50.720;11.342;2024-02-15T01:35:15;3.90;;;2.22;;
44973;SDS011;60981;50.720;11.342;2024-02-15T01:36:17;3.08;;;1.10;;
44973;SDS011;60981;50.720;11.342;2024-02-15T01:37:20;4.30;;;1.27;;
44973;SDS011;60981;50.720;11.342;2024-02-15T01:38:21;3.55;;;1.63;;
44973;SDS011;60981;50.720;11.342;2024-02-15T01:39:23;3.30;;;1.42;;
44973;SDS011;60981;50.720;11.342;2024-02-15T01:40:26;2.08;;;0.65;;
44973;SDS011;60981;50.720;11.342;2024-02-15T01:41:29;1.95;;;0.70;;
44973;SDS011;60981;50.720;11.342;2024-02-15T01:42:32;2.78;;;1.13;;
44973;SDS011;60981;50.720;11.342;2024-02-15T01:43:35;1.77;;;0.77;;
44973;SDS011;60981;50.720;11.342;2024-02-15T01:44:38;3.33;;;1.23;;
44973;SDS011;60981;50.720;11.342;2024-02-15T01:45:42;3.92;;;1.33;;
44973;SDS011;60981;50.720;11.342;2024-02-15T01:46:45;2.15;;;0.95;;
44973;SDS011;60981;50.720;11.342;2024-02-15T01:47:53;2.42;;;0.80;;
44973;SDS011;60981;50.720;11.342;2024-02-15T01:48:56;2.60;;;0.90;;
44973;SDS011;60981;50.720;11.342;2024-02-15T01:49:59;1.65;;;0.43;;
44973;SDS011;60981;50.720;11.342;2024-02-15T01:51:02;3.15;;;0.95;;
44973;SDS011;60981;50.720;11.342;2024-02-15T01:52:06;1.42;;;0.82;;
44973;SDS011;60981;50.720;11.342;2024-02-15T01:53:11;1.42;;;0.70;;
44973;SDS011;60981;50.720;11.342;2024-02-15T01:54:14;1.65;;;0.70;;
44973;SDS011;60981;50.720;11.342;2024-02-15T01:55:18;1.50;;;0.57;;
44973;SDS011;60981;50.720;11.342;2024-02-15T01:56:20;1.85;;;0.82;;
44973;SDS011;60981;50.720;11.342;2024-02-15T01:57:26;1.38;;;0.40;;
44973;SDS011;60981;50.720;11.342;2024-02-15T01:58:29;0.90;;;0.10;;
44973;SDS011;60981;50.720;11.342;2024-02-15T01:59:37;2.30;;;0.30;;
44973;SDS011;60981;50.720;11.342;2024-02-15T02:00:40;2.17;;;0.77;;
44973;SDS011;60981;50.720;11.342;2024-02-15T02:01:43;1.98;;;0.70;;
44973;SDS011;60981;50.720;11.342;2024-02-15T02:02:45;1.27;;;0.30;;
44973;SDS011;60981;50.720;11.342;2024-02-15T02:03:47;0.88;;;0.28;;
44973;SDS011;60981;50.720;11.342;2024-02-15T02:04:49;1.75;;;0.60;;
44973;SDS011;60981;50.720;11.342;2024-02-15T02:05:51;0.60;;;0.20;;
44973;SDS011;60981;50.720;11.342;2024-02-15T02:06:57;1.20;;;0.40;;
44973;SDS011;60981;50.720;11.342;2024-02-15T02:08:02;0.57;;;0.10;;
44973;SDS011;60981;50.720;11.342;2024-02-15T02:09:10;2.75;;;0.98;;
44973;SDS011;60981;50.720;11.342;2024-02-15T02:10:16;1.20;;;0.40;;
44973;SDS011;60981;50.720;11.342;2024-02-15T02:11:17;2.30;;;0.50;;
44973;SDS011;60981;50.720;11.342;2024-02-15T02:12:19;1.13;;;0.30;;
44973;SDS011;60981;50.720;11.342;2024-02-15T02:13:21;1.35;;;0.47;;
44973;SDS011;60981;50.720;11.342;2024-02-15T02:14:24;1.25;;;0.50;;
44973;SDS011;60981;50.720;11.342;2024-02-15T02:15:27;1.08;;;0.20;;
44973;SDS011;60981;50.720;11.342;2024-02-15T02:16:31;1.30;;;0.43;;
44973;SDS011;60981;50.720;11.342;2024-02-15T02:17:35;2.10;;;0.30;;
44973;SDS011;60981;50.720;11.342;2024-02-15T02:18:38;1.67;;;0.40;;
44973;SDS011;60981;50.720;11.342;2024-02-15T02:19:43;1.35;;;0.43;;
44973;SDS011;60981;50.720;11.342;2024-02-15T02:20:45;0.85;;;0.10;;
44973;SDS011;60981;50.720;11.342;2024-02-15T02:21:51;0.85;;;0.30;;
44973;SDS011;60981;50.720;11.342;2024-02-15T02:22:54;1.77;;;0.55;;
44973;SDS011;60981;50.720;11.342;2024-02-15T02:23:59;1.33;;;0.38;;
44973;SDS011;60981;50.720;11.342;2024-02-15T02:26:23;0.90;;;0.30;;
44973;SDS011;60981;50.720;11.342;2024-02-15T02:27:26;3.58;;;0.32;;
44973;SDS011;60981;50.720;11.342;2024-02-15T02:28:30;1.15;;;0.30;;
44973;SDS011;60981;50.720;11.342;2024-02-15T02:29:34;0.90;;;0.10;;
44973;SDS011;60981;50.720;11.342;2024-02-15T02:30:36;1.55;;;0.40;;
44973;SDS011;60981;50.720;11.342;2024-02-15T02:31:37;0.70;;;0.25;;
44973;SDS011;60981;50.720;11.342;2024-02-15T02:32:41;0.80;;;0.30;;
44973;SDS011;60981;50.720;11.342;2024-02-15T02:33:48;0.93;;;0.50;;
44973;SDS011;60981;50.720;11.342;2024-02-15T02:34:54;1.00;;;0.20;;
44973;SDS011;60981;50.720;11.342;2024-02-15T02:36:00;0.40;;;0.03;;
44973;SDS011;60981;50.720;11.342;2024-02-15T02:37:02;0.93;;;0.20;;
44973;SDS011;60981;50.720;11.342;2024-02-15T02:38:08;0.93;;;0.20;;
44973;SDS011;60981;50.720;11.342;2024-02-15T02:39:11;1.20;;;0.35;;
44973;SDS011;60981;50.720;11.342;2024-02-15T02:40:13;0.90;;;0.20;;
44973;SDS011;60981;50.720;11.342;2024-02-15T02:41:16;0.65;;;0.30;;
44973;SDS011;60981;50.720;11.342;2024-02-15T02:42:18;0.80;;;0.40;;
44973;SDS011;60981;50.720;11.342;2024-02-15T02:43:20;0.20;;;0.10;;
44973;SDS011;60981;50.720;11.342;2024-02-15T02:44:22;1.27;;;0.50;;
44973;SDS011;60981;50.720;11.342;2024-02-15T02:45:23;1.30;;;0.30;;
44973;SDS011;60981;50.720;11.342;2024-02-15T02:46:28;1.20;;;0.55;;
44973;SDS011;60981;50.720;11.342;2024-02-15T02:47:32;2.80;;;0.30;;
44973;SDS011;60981;50.720;11.342;2024-02-15T02:48:34;1.48;;;0.43;;
44973;SDS011;60981;50.720;11.342;2024-02-15T02:49:36;0.60;;;0.13;;
44973;SDS011;60981;50.720;11.342;2024-02-15T02:50:39;0.80;;;0.15;;
44973;SDS011;60981;50.720;11.342;2024-02-15T02:51:42;1.40;;;0.50;;
44973;SDS011;60981;50.720;11.342;2024-02-15T02:52:46;0.75;;;0.25;;
44973;SDS011;60981;50.720;11.342;2024-02-15T02:53:49;2.60;;;0.40;;
44973;SDS011;60981;50.720;11.342;2024-02-15T02:54:51;0.80;;;0.30;;
44973;SDS011;60981;50.720;11.342;2024-02-15T02:55:54;0.75;;;0.20;;
44973;SDS011;60981;50.720;11.342;2024-02-15T02:56:56;0.80;;;0.20;;
44973;SDS011;60981;50.720;11.342;2024-02-15T02:57:58;0.60;;;0.13;;
44973;SDS011;60981;50.720;11.342;2024-02-15T02:59:00;1.10;;;0.30;;
44973;SDS011;60981;50.720;11.342;2024-02-15T03:00:06;1.00;;;0.50;;
44973;SDS011;60981;50.720;11.342;2024-02-15T03:01:16;0.75;;;0.17;;
44973;SDS011;60981;50.720;11.342;2024-02-15T03:02:19;0.60;;;0.10;;
44973;SDS011;60981;50.720;11.342;2024-02-15T03:03:20;1.23;;;0.30;;
44973;SDS011;60981;50.720;11.342;2024-02-15T03:04:24;0.52;;;0.13;;
44973;SDS011;60981;50.720;11.342;2024-02-15T03:05:29;0.47;;;0.10;;
44973;SDS011;60981;50.720;11.342;2024-02-15T03:06:31;0.85;;;0.55;;
44973;SDS011;60981;50.720;11.342;2024-02-15T03:07:35;0.32;;;0.10;;
44973;SDS011;60981;50.720;11.342;2024-02-15T03:08:39;0.50;;;0.10;;
44973;SDS011;60981;50.720;11.342;2024-02-15T03:09:42;0.32;;;0.20;;
44973;SDS011;60981;50.720;11.342;2024-02-15T03:10:45;0.47;;;0.05;;
44973;SDS011;60981;50.720;11.342;2024-02-15T03:11:46;0.60;;;0.10;;
44973;SDS011;60981;50.720;11.342;2024-02-15T03:12:48;1.92;;;0.50;;
44973;SDS011;60981;50.720;11.342;2024-02-15T03:13:51;0.30;;;0.10;;
44973;SDS011;60981;50.720;11.342;2024-02-15T03:14:54;0.28;;;0.13;;
44973;SDS011;60981;50.720;11.342;2024-02-15T03:15:58;0.73;;;0.30;;
44973;SDS011;60981;50.720;11.342;2024-02-15T03:17:01;0.45;;;0.08;;
44973;SDS011;60981;50.720;11.342;2024-02-15T03:18:06;1.02;;;0.30;;
44973;SDS011;60981;50.720;11.342;2024-02-15T03:19:10;0.73;;;0.30;;
44973;SDS011;60981;50.720;11.342;2024-02-15T03:20:15;0.45;;;0.15;;
44973;SDS011;60981;50.720;11.342;2024-02-15T03:21:26;1.25;;;0.20;;
44973;SDS011;60981;50.720;11.342;2024-02-15T03:22:29;0.95;;;0.28;;
44973;SDS011;60981;50.720;11.342;2024-02-15T03:23:32;1.02;;;0.40;;
44973;SDS011;60981;50.720;11.342;2024-02-15T03:24:36;0.73;;;0.25;;
44973;SDS011;60981;50.720;11.342;2024-02-15T03:25:39;0.82;;;0.30;;
44973;SDS011;60981;50.720;11.342;2024-02-15T03:26:42;1.20;;;0.47;;
44973;SDS011;60981;50.720;11.342;2024-02-15T03:27:45;1.73;;;0.70;;
44973;SDS011;60981;50.720;11.342;2024-02-15T03:28:47;0.60;;;0.20;;
44973;SDS011;60981;50.720;11.342;2024-02-15T03:29:49;0.60;;;0.20;;
44973;SDS011;60981;50.720;11.342;2024-02-15T03:30:51;0.70;;;0.20;;
44973;SDS011;60981;50.720;11.342;2024-02-15T03:31:53;0.73;;;0.30;;
44973;SDS011;60981;50.720;11.342;2024-02-15T03:32:56;1.00;;;0.10;;
44973;SDS011;60981;50.720;11.342;2024-02-15T03:33:59;2.13;;;0.20;;
44973;SDS011;60981;50.720;11.342;2024-02-15T03:35:02;1.00;;;0.20;;
44973;SDS011;60981;50.720;11.342;2024-02-15T03:36:04;0.40;;;0.10;;
44973;SDS011;60981;50.720;11.342;2024-02-15T03:37:08;0.70;;;0.20;;
44973;SDS011;60981;50.720;11.342;2024-02-15T03:38:12;0.55;;;0.05;;
44973;SDS011;60981;50.720;11.342;2024-02-15T03:39:15;0.73;;;0.13;;
44973;SDS011;60981;50.720;11.342;2024-02-15T03:40:17;0.43;;;0.10;;
44973;SDS011;60981;50.720;11.342;2024-02-15T03:41:22;0.60;;;0.10;;
44973;SDS011;60981;50.720;11.342;2024-02-15T03:42:23;0.70;;;0.17;;
44973;SDS011;60981;50.720;11.342;2024-02-15T03:43:29;0.30;;;0.00;;
44973;SDS011;60981;50.720;11.342;2024-02-15T03:44:31;0.38;;;0.15;;
44973;SDS011;60981;50.720;11.342;2024-02-15T03:45:34;1.00;;;0.20;;
44973;SDS011;60981;50.720;11.342;2024-02-15T03:46:37;1.70;;;0.82;;
44973;SDS011;60981;50.720;11.342;2024-02-15T03:47:40;0.70;;;0.20;;
44973;SDS011;60981;50.720;11.342;2024-02-15T03:48:43;1.10;;;0.40;;
44973;SDS011;60981;50.720;11.342;2024-02-15T03:49:52;0.93;;;0.38;;
44973;SDS011;60981;50.720;11.342;2024-02-15T03:50:56;1.95;;;0.73;;
44973;SDS011;60981;50.720;11.342;2024-02-15T03:51:59;2.50;;;0.80;;
44973;SDS011;60981;50.720;11.342;2024-02-15T03:53:02;0.52;;;0.20;;
44973;SDS011;60981;50.720;11.342;2024-02-15T03:54:07;0.93;;;0.40;;
44973;SDS011;60981;50.720;11.342;2024-02-15T03:55:10;1.25;;;0.47;;
44973;SDS011;60981;50.720;11.342;2024-02-15T03:56:13;0.73;;;0.20;;
44973;SDS011;60981;50.720;11.342;2024-02-15T03:57:16;0.80;;;0.20;;
44973;SDS011;60981;50.720;11.342;2024-02-15T03:58:18;0.80;;;0.20;;
44973;SDS011;60981;50.720;11.342;2024-02-15T03:59:21;5.70;;;0.43;;
44973;SDS011;60981;50.720;11.342;2024-02-15T04:00:23;1.80;;;0.50;;
44973;SDS011;60981;50.720;11.342;2024-02-15T04:01:30;2.65;;;0.98;;
44973;SDS011;60981;50.720;11.342;2024-02-15T04:02:37;2.38;;;0.85;;
44973;SDS011;60981;50.720;11.342;2024-02-15T04:03:40;1.02;;;0.40;;
44973;SDS011;60981;50.720;11.342;2024-02-15T04:04:43;0.65;;;0.10;;
44973;SDS011;60981;50.720;11.342;2024-02-15T04:05:48;1.30;;;0.10;;
44973;SDS011;60981;50.720;11.342;2024-02-15T04:06:50;0.80;;;0.15;;
44973;SDS011;60981;50.720;11.342;2024-02-15T04:07:53;0.43;;;0.15;;
44973;SDS011;60981;50.720;11.342;2024-02-15T04:08:55;6.43;;;0.40;;
44973;SDS011;60981;50.720;11.342;2024-02-15T04:09:57;0.98;;;0.20;;
44973;SDS011;60981;50.720;11.342;2024-02-15T04:11:00;0.60;;;0.27;;
44973;SDS011;60981;50.720;11.342;2024-02-15T04:12:03;1.40;;;0.40;;
44973;SDS011;60981;50.720;11.342;2024-02-15T04:13:07;0.63;;;0.22;;
44973;SDS011;60981;50.720;11.342;2024-02-15T04:14:08;1.00;;;0.32;;
44973;SDS011;60981;50.720;11.342;2024-02-15T04:15:11;0.70;;;0.17;;
44973;SDS011;60981;50.720;11.342;2024-02-15T04:16:16;1.30;;;0.25;;
44973;SDS011;60981;50.720;11.342;2024-02-15T04:17:18;0.40;;;0.13;;
44973;SDS011;60981;50.720;11.342;2024-02-15T04:18:23;0.85;;;0.22;;
44973;SDS011;60981;50.720;11.342;2024-02-15T04:19:27;0.73;;;0.30;;
44973;SDS011;60981;50.720;11.342;2024-02-15T04:20:29;0.68;;;0.17;;
44973;SDS011;60981;50.720;11.342;2024-02-15T04:21:33;1.65;;;0.40;;
44973;SDS011;60981;50.720;11.342;2024-02-15T04:22:36;0.80;;;0.20;;
44973;SDS011;60981;50.720;11.342;2024-02-15T04:23:40;3.47;;;0.47;;
44973;SDS011;60981;50.720;11.342;2024-02-15T04:24:43;0.95;;;0.28;;
44973;SDS011;60981;50.720;11.342;2024-02-15T04:25:45;0.50;;;0.20;;
44973;SDS011;60981;50.720;11.342;2024-02-15T04:26:52;0.68;;;0.20;;
44973;SDS011;60981;50.720;11.342;2024-02-15T04:27:54;0.60;;;0.13;;
44973;SDS011;60981;50.720;11.342;2024-02-15T04:28:56;0.65;;;0.20;;
44973;SDS011;60981;50.720;11.342;2024-02-15T04:29:58;0.82;;;0.30;;
44973;SDS011;60981;50.720;11.342;2024-02-15T04:31:00;1.27;;;0.28;;
44973;SDS011;60981;50.720;11.342;2024-02-15T04:32:02;1.50;;;0.47;;
44973;SDS011;60981;50.720;11.342;2024-02-15T04:33:06;1.05;;;0.40;;
44973;SDS011;60981;50.720;11.342;2024-02-15T04:34:09;2.47;;;0.35;;
44973;SDS011;60981;50.720;11.342;2024-02-15T04:35:12;0.65;;;0.10;;
44973;SDS011;60981;50.720;11.342;2024-02-15T04:36:16;1.25;;;0.40;;
44973;SDS011;60981;50.720;11.342;2024-02-15T04:37:24;1.75;;;0.30;;
44973;SDS011;60981;50.720;11.342;2024-02-15T04:38:30;1.20;;;0.10;;
44973;SDS011;60981;50.720;11.342;2024-02-15T04:39:36;0.93;;;0.30;;
44973;SDS011;60981;50.720;11.342;2024-02-15T04:40:38;0.98;;;0.47;;
44973;SDS011;60981;50.720;11.342;2024-02-15T04:41:42;0.80;;;0.22;;
44973;SDS011;60981;50.720;11.342;2024-02-15T04:42:44;0.40;;;0.20;;
44973;SDS011;60981;50.720;11.342;2024-02-15T04:43:50;0.45;;;0.10;;
44973;SDS011;60981;50.720;11.342;2024-02-15T04:44:52;0.88;;;0.13;;
44973;SDS011;60981;50.720;11.342;2024-02-15T04:45:56;0.40;;;0.10;;
44973;SDS011;60981;50.720;11.342;2024-02-15T04:46:58;0.20;;;0.00;;
44973;SDS011;60981;50.720;11.342;2024-02-15T04:48:00;0.63;;;0.10;;
44973;SDS011;60981;50.720;11.342;2024-02-15T04:49:07;0.30;;;0.10;;
44973;SDS011;60981;50.720;11.342;2024-02-15T04:50:11;0.63;;;0.28;;
44973;SDS011;60981;50.720;11.342;2024-02-15T04:51:14;0.35;;;0.10;;
44973;SDS011;60981;50.720;11.342;2024-02-15T04:52:16;0.20;;;0.00;;
44973;SDS011;60981;50.720;11.342;2024-02-15T04:53:19;1.15;;;0.25;;
44973;SDS011;60981;50.720;11.342;2024-02-15T04:54:21;0.50;;;0.20;;
44973;SDS011;60981;50.720;11.342;2024-02-15T04:55:24;0.93;;;0.35;;
44973;SDS011;60981;50.720;11.342;2024-02-15T04:56:29;0.45;;;0.10;;
44973;SDS011;60981;50.720;11.342;2024-02-15T04:57:34;0.77;;;0.20;;
44973;SDS011;60981;50.720;11.342;2024-02-15T04:58:40;0.98;;;0.40;;
44973;SDS011;60981;50.720;11.342;2024-02-15T04:59:49;1.05;;;0.35;;
44973;SDS011;60981;50.720;11.342;2024-02-15T05:00:51;1.10;;;0.25;;
44973;SDS011;60981;50.720;11.342;2024-02-15T05:01:57;0.85;;;0.32;;
44973;SDS011;60981;50.720;11.342;2024-02-15T05:03:00;0.57;;;0.10;;
44973;SDS011;60981;50.720;11.342;2024-02-15T05:04:03;1.00;;;0.32;;
44973;SDS011;60981;50.720;11.342;2024-02-15T05:05:07;1.27;;;0.50;;
44973;SDS011;60981;50.720;11.342;2024-02-15T05:06:11;0.70;;;0.20;;
44973;SDS011;60981;50.720;11.342;2024-02-15T05:07:16;1.58;;;0.50;;
44973;SDS011;60981;50.720;11.342;2024-02-15T05:08:19;2.90;;;0.40;;
44973;SDS011;60981;50.720;11.342;2024-02-15T05:09:21;2.15;;;0.60;;
44973;SDS011;60981;50.720;11.342;2024-02-15T05:10:24;0.73;;;0.40;;
44973;SDS011;60981;50.720;11.342;2024-02-15T05:11:29;0.98;;;0.32;;
44973;SDS011;60981;50.720;11.342;2024-02-15T05:12:31;0.75;;;0.20;;
44973;SDS011;60981;50.720;11.342;2024-02-15T05:13:33;1.13;;;0.40;;
44973;SDS011;60981;50.720;11.342;2024-02-15T05:14:36;2.22;;;0.43;;
44973;SDS011;60981;50.720;11.342;2024-02-15T05:15:42;2.65;;;0.30;;
44973;SDS011;60981;50.720;11.342;2024-02-15T05:16:48;3.97;;;0.43;;
44973;SDS011;60981;50.720;11.342;2024-02-15T05:17:50;1.55;;;0.40;;
44973;SDS011;60981;50.720;11.342;2024-02-15T05:18:52;1.27;;;0.20;;
44973;SDS011;60981;50.720;11.342;2024-02-15T05:19:55;0.93;;;0.35;;
44973;SDS011;60981;50.720;11.342;2024-02-15T05:21:02;1.33;;;0.50;;
44973;SDS011;60981;50.720;11.342;2024-02-15T05:22:06;0.75;;;0.20;;
44973;SDS011;60981;50.720;11.342;2024-02-15T05:23:09;1.02;;;0.32;;
44973;SDS011;60981;50.720;11.342;2024-02-15T05:24:16;0.85;;;0.32;;
44973;SDS011;60981;50.720;11.342;2024-02-15T05:25:19;1.92;;;0.45;;
44973;SDS011;60981;50.720;11.342;2024-02-15T05:26:27;1.02;;;0.25;;
44973;SDS011;60981;50.720;11.342;2024-02-15T05:27:31;0.90;;;0.40;;
44973;SDS011;60981;50.720;11.342;2024-02-15T05:28:33;1.17;;;0.52;;
44973;SDS011;60981;50.720;11.342;2024-02-15T05:29:37;1.63;;;0.40;;
44973;SDS011;60981;50.720;11.342;2024-02-15T05:30:42;1.27;;;0.22;;
44973;SDS011;60981;50.720;11.342;2024-02-15T05:31:44;0.90;;;0.35;;
44973;SDS011;60981;50.720;11.342;2024-02-15T05:32:50;1.63;;;0.50;;
44973;SDS011;60981;50.720;11.342;2024-02-15T05:33:55;2.65;;;0.60;;
44973;SDS011;60981;50.720;11.342;2024-02-15T05:34:57;3.65;;;0.68;;
44973;SDS011;60981;50.720;11.342;2024-02-15T05:35:59;3.28;;;1.13;;
44973;SDS011;60981;50.720;11.342;2024-02-15T05:37:01;3.40;;;0.85;;
44973;SDS011;60981;50.720;11.342;2024-02-15T05:38:03;2.95;;;0.80;;
44973;SDS011;60981;50.720;11.342;2024-02-15T05:39:06;1.38;;;0.80;;
44973;SDS011;60981;50.720;11.342;2024-02-15T05:40:08;1.67;;;0.88;;
44973;SDS011;60981;50.720;11.342;2024-02-15T05:41:18;2.10;;;0.40;;
44973;SDS011;60981;50.720;11.342;2024-02-15T05:42:22;1.52;;;0.45;;
44973;SDS011;60981;50.720;11.342;2024-02-15T05:43:29;1.10;;;0.43;;
44973;SDS011;60981;50.720;11.342;2024-02-15T05:44:33;1.92;;;0.85;;
44973;SDS011;60981;50.720;11.342;2024-02-15T05:45:37;1.10;;;0.35;;
44973;SDS011;60981;50.720;11.342;2024-02-15T05:46:42;1.60;;;0.43;;
44973;SDS011;60981;50.720;11.342;2024-02-15T05:47:45;1.38;;;0.50;;
44973;SDS011;60981;50.720;11.342;2024-02-15T05:48:48;1.20;;;0.50;;
44973;SDS011;60981;50.720;11.342;2024-02-15T05:49:52;2.88;;;0.70;;
44973;SDS011;60981;50.720;11.342;2024-02-15T05:50:55;1.33;;;0.50;;
44973;SDS011;60981;50.720;11.342;2024-02-15T05:51:57;1.00;;;0.38;;
44973;SDS011;60981;50.720;11.342;2024-02-15T05:52:59;1.33;;;0.40;;
44973;SDS011;60981;50.720;11.342;2024-02-15T05:54:04;1.65;;;0.80;;
44973;SDS011;60981;50.720;11.342;2024-02-15T05:55:07;0.40;;;0.10;;
44973;SDS011;60981;50.720;11.342;2024-02-15T05:56:10;1.13;;;0.50;;
44973;SDS011;60981;50.720;11.342;2024-02-15T05:57:14;1.88;;;0.50;;
44973;SDS011;60981;50.720;11.342;2024-02-15T05:58:17;0.80;;;0.30;;
44973;SDS011;60981;50.720;11.342;2024-02-15T05:59:21;1.00;;;0.35;;
44973;SDS011;60981;50.720;11.342;2024-02-15T06:00:23;1.50;;;0.32;;
44973;SDS011;60981;50.720;11.342;2024-02-15T06:01:26;1.75;;;0.57;;
44973;SDS011;60981;50.720;11.342;2024-02-15T06:02:30;1.90;;;0.40;;
44973;SDS011;60981;50.720;11.342;2024-02-15T06:03:34;1.65;;;0.55;;
44973;SDS011;60981;50.720;11.342;2024-02-15T06:04:37;1.13;;;0.40;;
44973;SDS011;60981;50.720;11.342;2024-02-15T06:05:40;2.72;;;0.40;;
44973;SDS011;60981;50.720;11.342;2024-02-15T06:06:44;1.88;;;0.50;;
44973;SDS011;60981;50.720;11.342;2024-02-15T06:07:50;1.63;;;0.50;;
44973;SDS011;60981;50.720;11.342;2024-02-15T06:08:52;1.98;;;0.50;;
44973;SDS011;60981;50.720;11.342;2024-02-15T06:09:54;2.80;;;0.55;;
44973;SDS011;60981;50.720;11.342;2024-02-15T06:10:56;1.70;;;0.63;;
44973;SDS011;60981;50.720;11.342;2024-02-15T06:11:58;2.13;;;0.80;;
44973;SDS011;60981;50.720;11.342;2024-02-15T06:12:59;2.85;;;0.70;;
44973;SDS011;60981;50.720;11.342;2024-02-15T06:14:01;2.30;;;0.68;;
44973;SDS011;60981;50.720;11.342;2024-02-15T06:15:03;2.67;;;1.02;;
44973;SDS011;60981;50.720;11.342;2024-02-15T06:16:08;8.40;;;3.42;;
44973;SDS011;60981;50.720;11.342;2024-02-15T06:17:12;4.38;;;1.73;;